sensor_id;sensor_type;location;lat;lon;timestamp;P1;durP1;ratioP1;P2;durP2;ratioP2
60078;SDS011;45951;45.824;8.824;2024-02-26T00:00:14;9.05;;;6.53;;
60078;SDS011;45951;45.824;8.824;2024-02-26T00:01:55;10.43;;;6.78;;
60078;SDS011;45951;45.824;8.824;2024-02-26T00:03:35;10.13;;;7.33;;
60078;SDS011;45951;45.824;8.824;2024-02-26T00:05:15;11.73;;;7.30;;
60078;SDS011;45951;45.824;8.824;2024-02-26T00:06:55;10.70;;;6.77;;
60078;SDS011;45951;45.824;8.824;2024-02-26T00:08:36;9.48;;;6.97;;
60078;SDS011;45951;45.824;8.824;2024-02-26T00:10:16;9.33;;;6.87;;
60078;SDS011;45951;45.824;8.824;2024-02-26T00:11:56;9.95;;;6.93;;
60078;SDS011;45951;45.824;8.824;2024-02-26T00:13:37;9.32;;;6.95;;
60078;SDS011;45951;45.824;8.824;2024-02-26T00:15:18;9.47;;;6.93;;
60078;SDS011;45951;45.824;8.824;2024-02-26T00:16:58;9.95;;;6.88;;
60078;SDS011;45951;45.824;8.824;2024-02-26T00:18:38;9.23;;;6.93;;
60078;SDS011;45951;45.824;8.824;2024-02-26T00:20:18;10.47;;;7.33;;
60078;SDS011;45951;45.824;8.824;2024-02-26T00:21:59;10.55;;;7.22;;
60078;SDS011;45951;45.824;8.824;2024-02-26T00:23:39;9.88;;;6.68;;
60078;SDS011;45951;45.824;8.824;2024-02-26T00:25:19;10.27;;;6.63;;
60078;SDS011;45951;45.824;8.824;2024-02-26T00:26:59;10.57;;;6.73;;
60078;SDS011;45951;45.824;8.824;2024-02-26T00:28:39;9.17;;;6.73;;
60078;SDS011;45951;45.824;8.824;2024-02-26T00:30:20;9.10;;;6.35;;
60078;SDS011;45951;45.824;8.824;2024-02-26T00:32:00;10.23;;;7.07;;
60078;SDS011;45951;45.824;8.824;2024-02-26T00:33:40;10.20;;;7.20;;
60078;SDS011;45951;45.824;8.824;2024-02-26T00:35:20;9.97;;;7.13;;
60078;SDS011;45951;45.824;8.824;2024-02-26T00:37:01;9.87;;;6.63;;
60078;SDS011;45951;45.824;8.824;2024-02-26T00:38:41;13.43;;;6.88;;
60078;SDS011;45951;45.824;8.824;2024-02-26T00:40:24;10.13;;;6.93;;
60078;SDS011;45951;45.824;8.824;2024-02-26T00:42:05;10.03;;;6.83;;
60078;SDS011;45951;45.824;8.824;2024-02-26T00:43:45;9.50;;;6.97;;
60078;SDS011;45951;45.824;8.824;2024-02-26T00:45:25;10.40;;;6.78;;
60078;SDS011;45951;45.824;8.824;2024-02-26T00:47:05;9.10;;;6.78;;
60078;SDS011;45951;45.824;8.824;2024-02-26T00:48:45;9.00;;;6.30;;
60078;SDS011;45951;45.824;8.824;2024-02-26T00:50:26;10.57;;;7.00;;
60078;SDS011;45951;45.824;8.824;2024-02-26T00:52:06;9.77;;;7.27;;
60078;SDS011;45951;45.824;8.824;2024-02-26T00:53:46;11.07;;;7.07;;
60078;SDS011;45951;45.824;8.824;2024-02-26T00:55:26;9.17;;;6.03;;
60078;SDS011;45951;45.824;8.824;2024-02-26T00:57:06;9.77;;;6.80;;
60078;SDS011;45951;45.824;8.824;2024-02-26T00:58:46;8.88;;;5.68;;
60078;SDS011;45951;45.824;8.824;2024-02-26T01:00:27;8.77;;;6.13;;
60078;SDS011;45951;45.824;8.824;2024-02-26T01:02:07;9.13;;;6.23;;
60078;SDS011;45951;45.824;8.824;2024-02-26T01:03:47;10.93;;;6.00;;
60078;SDS011;45951;45.824;8.824;2024-02-26T01:05:27;10.25;;;6.90;;
60078;SDS011;45951;45.824;8.824;2024-02-26T01:07:08;9.60;;;6.13;;
60078;SDS011;45951;45.824;8.824;2024-02-26T01:08:48;7.75;;;5.47;;
60078;SDS011;45951;45.824;8.824;2024-02-26T01:10:29;7.45;;;5.68;;
60078;SDS011;45951;45.824;8.824;2024-02-26T01:12:09;9.70;;;5.83;;
60078;SDS011;45951;45.824;8.824;2024-02-26T01:13:49;8.93;;;5.73;;
60078;SDS011;45951;45.824;8.824;2024-02-26T01:15:33;8.13;;;5.03;;
60078;SDS011;45951;45.824;8.824;2024-02-26T01:17:13;7.97;;;5.60;;
60078;SDS011;45951;45.824;8.824;2024-02-26T01:18:53;7.90;;;5.30;;
60078;SDS011;45951;45.824;8.824;2024-02-26T01:20:33;7.27;;;4.60;;
60078;SDS011;45951;45.824;8.824;2024-02-26T01:22:14;7.15;;;4.93;;
60078;SDS011;45951;45.824;8.824;2024-02-26T01:23:54;6.97;;;4.80;;
60078;SDS011;45951;45.824;8.824;2024-02-26T01:25:34;8.15;;;5.65;;
60078;SDS011;45951;45.824;8.824;2024-02-26T01:27:14;7.57;;;5.15;;
60078;SDS011;45951;45.824;8.824;2024-02-26T01:28:55;6.80;;;4.80;;
60078;SDS011;45951;45.824;8.824;2024-02-26T01:30:35;8.17;;;5.30;;
60078;SDS011;45951;45.824;8.824;2024-02-26T01:32:16;8.32;;;5.15;;
60078;SDS011;45951;45.824;8.824;2024-02-26T01:33:56;7.30;;;5.07;;
60078;SDS011;45951;45.824;8.824;2024-02-26T01:35:36;7.45;;;5.07;;
60078;SDS011;45951;45.824;8.824;2024-02-26T01:37:16;8.15;;;4.53;;
60078;SDS011;45951;45.824;8.824;2024-02-26T01:38:57;6.70;;;4.70;;
60078;SDS011;45951;45.824;8.824;2024-02-26T01:40:37;6.93;;;4.63;;
60078;SDS011;45951;45.824;8.824;2024-02-26T01:42:17;7.55;;;4.78;;
60078;SDS011;45951;45.824;8.824;2024-02-26T01:43:57;7.50;;;4.80;;
60078;SDS011;45951;45.824;8.824;2024-02-26T01:45:38;7.63;;;4.47;;
60078;SDS011;45951;45.824;8.824;2024-02-26T01:47:18;6.83;;;4.07;;
60078;SDS011;45951;45.824;8.824;2024-02-26T01:48:58;6.68;;;4.63;;
60078;SDS011;45951;45.824;8.824;2024-02-26T01:50:39;7.28;;;4.78;;
60078;SDS011;45951;45.824;8.824;2024-02-26T01:52:20;6.68;;;4.40;;
60078;SDS011;45951;45.824;8.824;2024-02-26T01:54:02;6.30;;;4.28;;
60078;SDS011;45951;45.824;8.824;2024-02-26T01:55:43;7.47;;;4.78;;
60078;SDS011;45951;45.824;8.824;2024-02-26T01:57:23;7.23;;;4.50;;
60078;SDS011;45951;45.824;8.824;2024-02-26T01:59:04;7.22;;;4.68;;
60078;SDS011;45951;45.824;8.824;2024-02-26T02:00:45;7.20;;;4.68;;
60078;SDS011;45951;45.824;8.824;2024-02-26T02:02:25;6.43;;;4.28;;
60078;SDS011;45951;45.824;8.824;2024-02-26T02:04:05;5.80;;;4.07;;
60078;SDS011;45951;45.824;8.824;2024-02-26T02:05:46;7.13;;;4.40;;
60078;SDS011;45951;45.824;8.824;2024-02-26T02:07:26;6.13;;;4.00;;
60078;SDS011;45951;45.824;8.824;2024-02-26T02:09:06;6.30;;;4.27;;
60078;SDS011;45951;45.824;8.824;2024-02-26T02:10:47;6.18;;;4.15;;
60078;SDS011;45951;45.824;8.824;2024-02-26T02:12:29;7.53;;;4.80;;
60078;SDS011;45951;45.824;8.824;2024-02-26T02:14:09;6.90;;;4.95;;
60078;SDS011;45951;45.824;8.824;2024-02-26T02:15:49;6.72;;;4.47;;
60078;SDS011;45951;45.824;8.824;2024-02-26T02:17:30;6.80;;;4.80;;
60078;SDS011;45951;45.824;8.824;2024-02-26T02:19:10;8.05;;;5.10;;
60078;SDS011;45951;45.824;8.824;2024-02-26T02:20:50;7.15;;;4.55;;
60078;SDS011;45951;45.824;8.824;2024-02-26T02:22:30;6.88;;;4.97;;
60078;SDS011;45951;45.824;8.824;2024-02-26T02:24:12;7.75;;;4.68;;
60078;SDS011;45951;45.824;8.824;2024-02-26T02:25:52;6.43;;;4.43;;
60078;SDS011;45951;45.824;8.824;2024-02-26T02:27:32;7.05;;;4.10;;
60078;SDS011;45951;45.824;8.824;2024-02-26T02:29:13;5.28;;;3.78;;
60078;SDS011;45951;45.824;8.824;2024-02-26T02:30:54;5.53;;;3.65;;
60078;SDS011;45951;45.824;8.824;2024-02-26T02:32:35;6.30;;;3.90;;
60078;SDS011;45951;45.824;8.824;2024-02-26T02:34:16;5.70;;;3.67;;
60078;SDS011;45951;45.824;8.824;2024-02-26T02:35:57;5.88;;;3.63;;
60078;SDS011;45951;45.824;8.824;2024-02-26T02:37:38;5.53;;;3.40;;
60078;SDS011;45951;45.824;8.824;2024-02-26T02:39:18;4.83;;;3.40;;
60078;SDS011;45951;45.824;8.824;2024-02-26T02:40:58;4.95;;;2.95;;
60078;SDS011;45951;45.824;8.824;2024-02-26T02:42:38;5.97;;;3.67;;
60078;SDS011;45951;45.824;8.824;2024-02-26T02:44:18;4.90;;;2.97;;
60078;SDS011;45951;45.824;8.824;2024-02-26T02:45:59;5.63;;;3.42;;
60078;SDS011;45951;45.824;8.824;2024-02-26T02:47:39;4.10;;;2.63;;
60078;SDS011;45951;45.824;8.824;2024-02-26T02:49:19;5.03;;;3.40;;
60078;SDS011;45951;45.824;8.824;2024-02-26T02:50:59;4.53;;;2.80;;
60078;SDS011;45951;45.824;8.824;2024-02-26T02:52:40;4.73;;;3.07;;
60078;SDS011;45951;45.824;8.824;2024-02-26T02:54:20;4.13;;;2.85;;
60078;SDS011;45951;45.824;8.824;2024-02-26T02:56:00;4.43;;;2.70;;
60078;SDS011;45951;45.824;8.824;2024-02-26T02:57:40;4.90;;;3.10;;
60078;SDS011;45951;45.824;8.824;2024-02-26T02:59:25;4.57;;;2.70;;
60078;SDS011;45951;45.824;8.824;2024-02-26T03:01:05;4.05;;;2.70;;
60078;SDS011;45951;45.824;8.824;2024-02-26T03:02:45;5.90;;;3.00;;
60078;SDS011;45951;45.824;8.824;2024-02-26T03:04:26;4.72;;;2.80;;
60078;SDS011;45951;45.824;8.824;2024-02-26T03:06:06;4.55;;;2.80;;
60078;SDS011;45951;45.824;8.824;2024-02-26T03:07:46;3.53;;;2.60;;
60078;SDS011;45951;45.824;8.824;2024-02-26T03:09:27;4.70;;;2.80;;
60078;SDS011;45951;45.824;8.824;2024-02-26T03:11:07;4.18;;;2.70;;
60078;SDS011;45951;45.824;8.824;2024-02-26T03:12:47;4.40;;;2.50;;
60078;SDS011;45951;45.824;8.824;2024-02-26T03:14:27;4.75;;;2.45;;
60078;SDS011;45951;45.824;8.824;2024-02-26T03:16:07;5.20;;;2.63;;
60078;SDS011;45951;45.824;8.824;2024-02-26T03:17:48;3.92;;;2.50;;
60078;SDS011;45951;45.824;8.824;2024-02-26T03:19:28;3.70;;;2.47;;
60078;SDS011;45951;45.824;8.824;2024-02-26T03:21:08;2.90;;;2.10;;
60078;SDS011;45951;45.824;8.824;2024-02-26T03:22:49;3.55;;;2.50;;
60078;SDS011;45951;45.824;8.824;2024-02-26T03:24:29;4.30;;;2.50;;
60078;SDS011;45951;45.824;8.824;2024-02-26T03:26:09;3.57;;;2.03;;
60078;SDS011;45951;45.824;8.824;2024-02-26T03:27:53;3.20;;;2.00;;
60078;SDS011;45951;45.824;8.824;2024-02-26T03:29:33;3.37;;;2.13;;
60078;SDS011;45951;45.824;8.824;2024-02-26T03:31:14;3.07;;;2.10;;
60078;SDS011;45951;45.824;8.824;2024-02-26T03:32:54;2.70;;;2.03;;
60078;SDS011;45951;45.824;8.824;2024-02-26T03:34:35;4.35;;;2.45;;
60078;SDS011;45951;45.824;8.824;2024-02-26T03:36:15;3.35;;;2.28;;
60078;SDS011;45951;45.824;8.824;2024-02-26T03:37:55;3.03;;;2.10;;
60078;SDS011;45951;45.824;8.824;2024-02-26T03:39:35;3.13;;;2.17;;
60078;SDS011;45951;45.824;8.824;2024-02-26T03:41:15;3.00;;;2.10;;
60078;SDS011;45951;45.824;8.824;2024-02-26T03:42:56;3.00;;;2.10;;
60078;SDS011;45951;45.824;8.824;2024-02-26T03:44:37;3.55;;;2.00;;
60078;SDS011;45951;45.824;8.824;2024-02-26T03:46:17;2.83;;;1.90;;
60078;SDS011;45951;45.824;8.824;2024-02-26T03:47:57;2.95;;;2.00;;
60078;SDS011;45951;45.824;8.824;2024-02-26T03:49:38;2.90;;;1.87;;
60078;SDS011;45951;45.824;8.824;2024-02-26T03:51:18;2.40;;;2.00;;
60078;SDS011;45951;45.824;8.824;2024-02-26T03:52:58;3.30;;;2.13;;
60078;SDS011;45951;45.824;8.824;2024-02-26T03:54:39;1.95;;;1.75;;
60078;SDS011;45951;45.824;8.824;2024-02-26T03:56:19;2.47;;;1.90;;
60078;SDS011;45951;45.824;8.824;2024-02-26T03:58:00;3.30;;;1.90;;
60078;SDS011;45951;45.824;8.824;2024-02-26T03:59:40;3.97;;;1.95;;
60078;SDS011;45951;45.824;8.824;2024-02-26T04:01:21;2.65;;;1.75;;
60078;SDS011;45951;45.824;8.824;2024-02-26T04:03:01;2.73;;;1.83;;
60078;SDS011;45951;45.824;8.824;2024-02-26T04:04:41;3.55;;;1.88;;
60078;SDS011;45951;45.824;8.824;2024-02-26T04:06:22;2.92;;;1.55;;
60078;SDS011;45951;45.824;8.824;2024-02-26T04:08:02;2.85;;;1.88;;
60078;SDS011;45951;45.824;8.824;2024-02-26T04:09:44;3.13;;;1.65;;
60078;SDS011;45951;45.824;8.824;2024-02-26T04:11:24;2.67;;;1.70;;
60078;SDS011;45951;45.824;8.824;2024-02-26T04:13:04;3.33;;;2.10;;
60078;SDS011;45951;45.824;8.824;2024-02-26T04:14:45;2.72;;;1.80;;
60078;SDS011;45951;45.824;8.824;2024-02-26T04:16:25;2.17;;;1.70;;
60078;SDS011;45951;45.824;8.824;2024-02-26T04:18:06;2.83;;;1.70;;
60078;SDS011;45951;45.824;8.824;2024-02-26T04:19:46;2.83;;;1.50;;
60078;SDS011;45951;45.824;8.824;2024-02-26T04:21:26;4.07;;;1.90;;
60078;SDS011;45951;45.824;8.824;2024-02-26T04:23:06;1.98;;;1.48;;
60078;SDS011;45951;45.824;8.824;2024-02-26T04:24:46;2.23;;;1.50;;
60078;SDS011;45951;45.824;8.824;2024-02-26T04:26:27;2.42;;;1.88;;
60078;SDS011;45951;45.824;8.824;2024-02-26T04:28:08;2.05;;;1.52;;
60078;SDS011;45951;45.824;8.824;2024-02-26T04:29:48;2.57;;;1.80;;
60078;SDS011;45951;45.824;8.824;2024-02-26T04:31:28;1.87;;;1.47;;
60078;SDS011;45951;45.824;8.824;2024-02-26T04:33:09;2.33;;;1.58;;
60078;SDS011;45951;45.824;8.824;2024-02-26T04:34:49;3.23;;;1.80;;
60078;SDS011;45951;45.824;8.824;2024-02-26T04:36:29;2.67;;;1.80;;
60078;SDS011;45951;45.824;8.824;2024-02-26T04:38:09;4.30;;;1.90;;
60078;SDS011;45951;45.824;8.824;2024-02-26T04:39:49;2.33;;;1.73;;
60078;SDS011;45951;45.824;8.824;2024-02-26T04:41:29;1.85;;;1.60;;
60078;SDS011;45951;45.824;8.824;2024-02-26T04:43:10;2.53;;;1.50;;
60078;SDS011;45951;45.824;8.824;2024-02-26T04:44:50;2.33;;;1.60;;
60078;SDS011;45951;45.824;8.824;2024-02-26T04:46:30;3.42;;;1.92;;
60078;SDS011;45951;45.824;8.824;2024-02-26T04:48:10;2.57;;;1.83;;
60078;SDS011;45951;45.824;8.824;2024-02-26T04:49:50;4.70;;;1.80;;
60078;SDS011;45951;45.824;8.824;2024-02-26T04:51:31;1.73;;;1.48;;
60078;SDS011;45951;45.824;8.824;2024-02-26T04:53:11;2.20;;;1.53;;
60078;SDS011;45951;45.824;8.824;2024-02-26T04:54:51;2.47;;;1.70;;
60078;SDS011;45951;45.824;8.824;2024-02-26T04:56:31;2.05;;;1.60;;
60078;SDS011;45951;45.824;8.824;2024-02-26T04:58:11;1.80;;;1.40;;
60078;SDS011;45951;45.824;8.824;2024-02-26T04:59:52;2.67;;;1.88;;
60078;SDS011;45951;45.824;8.824;2024-02-26T05:01:32;2.30;;;1.65;;
60078;SDS011;45951;45.824;8.824;2024-02-26T05:03:12;2.53;;;1.60;;
60078;SDS011;45951;45.824;8.824;2024-02-26T05:04:53;2.78;;;1.77;;
60078;SDS011;45951;45.824;8.824;2024-02-26T05:06:33;3.72;;;1.70;;
60078;SDS011;45951;45.824;8.824;2024-02-26T05:08:13;2.80;;;2.00;;
60078;SDS011;45951;45.824;8.824;2024-02-26T05:09:54;2.08;;;1.88;;
60078;SDS011;45951;45.824;8.824;2024-02-26T05:11:34;2.35;;;1.63;;
60078;SDS011;45951;45.824;8.824;2024-02-26T05:13:15;2.72;;;1.80;;
60078;SDS011;45951;45.824;8.824;2024-02-26T05:14:57;3.92;;;1.88;;
60078;SDS011;45951;45.824;8.824;2024-02-26T05:16:38;2.92;;;1.90;;
60078;SDS011;45951;45.824;8.824;2024-02-26T05:18:18;2.20;;;1.73;;
60078;SDS011;45951;45.824;8.824;2024-02-26T05:19:58;3.17;;;1.80;;
60078;SDS011;45951;45.824;8.824;2024-02-26T05:21:38;3.30;;;2.07;;
60078;SDS011;45951;45.824;8.824;2024-02-26T05:23:19;3.15;;;1.75;;
60078;SDS011;45951;45.824;8.824;2024-02-26T05:25:00;2.38;;;1.73;;
60078;SDS011;45951;45.824;8.824;2024-02-26T05:26:40;2.07;;;1.63;;
60078;SDS011;45951;45.824;8.824;2024-02-26T05:28:21;2.00;;;1.67;;
60078;SDS011;45951;45.824;8.824;2024-02-26T05:30:01;3.72;;;1.90;;
60078;SDS011;45951;45.824;8.824;2024-02-26T05:31:44;4.22;;;1.92;;
60078;SDS011;45951;45.824;8.824;2024-02-26T05:33:24;4.95;;;1.88;;
60078;SDS011;45951;45.824;8.824;2024-02-26T05:35:05;2.05;;;1.60;;
60078;SDS011;45951;45.824;8.824;2024-02-26T05:36:45;2.55;;;1.80;;
60078;SDS011;45951;45.824;8.824;2024-02-26T05:38:25;3.40;;;1.87;;
60078;SDS011;45951;45.824;8.824;2024-02-26T05:40:06;3.10;;;1.70;;
60078;SDS011;45951;45.824;8.824;2024-02-26T05:41:46;2.13;;;1.55;;
60078;SDS011;45951;45.824;8.824;2024-02-26T05:43:26;2.90;;;1.92;;
60078;SDS011;45951;45.824;8.824;2024-02-26T05:45:07;2.90;;;1.85;;
60078;SDS011;45951;45.824;8.824;2024-02-26T05:46:47;4.22;;;2.20;;
60078;SDS011;45951;45.824;8.824;2024-02-26T05:48:27;4.53;;;2.13;;
60078;SDS011;45951;45.824;8.824;2024-02-26T05:50:10;3.03;;;1.90;;
60078;SDS011;45951;45.824;8.824;2024-02-26T05:51:51;3.33;;;1.88;;
60078;SDS011;45951;45.824;8.824;2024-02-26T05:53:31;3.40;;;2.00;;
60078;SDS011;45951;45.824;8.824;2024-02-26T05:55:11;2.87;;;1.80;;
60078;SDS011;45951;45.824;8.824;2024-02-26T05:56:52;2.95;;;1.90;;
60078;SDS011;45951;45.824;8.824;2024-02-26T05:58:33;3.60;;;2.10;;
60078;SDS011;45951;45.824;8.824;2024-02-26T06:00:13;3.10;;;2.03;;
60078;SDS011;45951;45.824;8.824;2024-02-26T06:01:53;2.83;;;2.00;;
60078;SDS011;45951;45.824;8.824;2024-02-26T06:03:33;4.17;;;2.30;;
60078;SDS011;45951;45.824;8.824;2024-02-26T06:05:14;4.07;;;2.45;;
60078;SDS011;45951;45.824;8.824;2024-02-26T06:06:54;3.95;;;2.30;;
60078;SDS011;45951;45.824;8.824;2024-02-26T06:08:34;2.33;;;1.80;;
60078;SDS011;45951;45.824;8.824;2024-02-26T06:10:14;3.15;;;2.20;;
60078;SDS011;45951;45.824;8.824;2024-02-26T06:11:55;2.70;;;1.95;;
60078;SDS011;45951;45.824;8.824;2024-02-26T06:13:35;4.40;;;2.10;;
60078;SDS011;45951;45.824;8.824;2024-02-26T06:15:15;3.30;;;2.10;;
60078;SDS011;45951;45.824;8.824;2024-02-26T06:16:55;3.23;;;2.10;;
60078;SDS011;45951;45.824;8.824;2024-02-26T06:18:36;3.38;;;2.30;;
60078;SDS011;45951;45.824;8.824;2024-02-26T06:20:16;3.97;;;2.47;;
60078;SDS011;45951;45.824;8.824;2024-02-26T06:21:56;3.60;;;2.40;;
60078;SDS011;45951;45.824;8.824;2024-02-26T06:23:37;4.60;;;2.78;;
60078;SDS011;45951;45.824;8.824;2024-02-26T06:25:17;3.63;;;2.50;;
60078;SDS011;45951;45.824;8.824;2024-02-26T06:26:57;5.68;;;3.00;;
60078;SDS011;45951;45.824;8.824;2024-02-26T06:28:38;3.47;;;2.60;;
60078;SDS011;45951;45.824;8.824;2024-02-26T06:30:20;4.90;;;2.80;;
60078;SDS011;45951;45.824;8.824;2024-02-26T06:32:00;4.00;;;2.63;;
60078;SDS011;45951;45.824;8.824;2024-02-26T06:33:40;5.17;;;3.07;;
60078;SDS011;45951;45.824;8.824;2024-02-26T06:35:21;5.18;;;3.05;;
60078;SDS011;45951;45.824;8.824;2024-02-26T06:37:01;5.47;;;2.97;;
60078;SDS011;45951;45.824;8.824;2024-02-26T06:38:43;4.50;;;2.85;;
60078;SDS011;45951;45.824;8.824;2024-02-26T06:40:23;4.53;;;2.93;;
60078;SDS011;45951;45.824;8.824;2024-02-26T06:42:04;5.35;;;2.80;;
60078;SDS011;45951;45.824;8.824;2024-02-26T06:43:44;5.60;;;3.85;;
60078;SDS011;45951;45.824;8.824;2024-02-26T06:45:24;4.40;;;2.60;;
60078;SDS011;45951;45.824;8.824;2024-02-26T06:47:05;3.63;;;2.50;;
60078;SDS011;45951;45.824;8.824;2024-02-26T06:48:45;4.10;;;2.65;;
60078;SDS011;45951;45.824;8.824;2024-02-26T06:50:25;4.85;;;2.70;;
60078;SDS011;45951;45.824;8.824;2024-02-26T06:52:05;3.83;;;2.47;;
60078;SDS011;45951;45.824;8.824;2024-02-26T06:53:46;3.67;;;2.38;;
60078;SDS011;45951;45.824;8.824;2024-02-26T06:55:26;4.35;;;2.88;;
60078;SDS011;45951;45.824;8.824;2024-02-26T06:57:06;4.47;;;2.57;;
60078;SDS011;45951;45.824;8.824;2024-02-26T06:58:47;2.60;;;1.77;;
60078;SDS011;45951;45.824;8.824;2024-02-26T07:00:27;3.78;;;2.20;;
60078;SDS011;45951;45.824;8.824;2024-02-26T07:02:07;3.37;;;2.17;;
60078;SDS011;45951;45.824;8.824;2024-02-26T07:03:47;3.77;;;2.30;;
60078;SDS011;45951;45.824;8.824;2024-02-26T07:05:27;2.67;;;2.20;;
60078;SDS011;45951;45.824;8.824;2024-02-26T07:07:08;3.15;;;2.20;;
60078;SDS011;45951;45.824;8.824;2024-02-26T07:08:48;2.90;;;2.33;;
60078;SDS011;45951;45.824;8.824;2024-02-26T07:10:28;4.30;;;2.53;;
60078;SDS011;45951;45.824;8.824;2024-02-26T07:12:09;3.47;;;2.33;;
60078;SDS011;45951;45.824;8.824;2024-02-26T07:13:49;3.45;;;2.40;;
60078;SDS011;45951;45.824;8.824;2024-02-26T07:15:29;3.28;;;2.15;;
60078;SDS011;45951;45.824;8.824;2024-02-26T07:17:09;4.70;;;2.72;;
60078;SDS011;45951;45.824;8.824;2024-02-26T07:18:50;3.77;;;2.50;;
60078;SDS011;45951;45.824;8.824;2024-02-26T07:20:30;3.20;;;2.43;;
60078;SDS011;45951;45.824;8.824;2024-02-26T07:22:10;3.03;;;2.40;;
60078;SDS011;45951;45.824;8.824;2024-02-26T07:23:51;4.07;;;2.13;;
60078;SDS011;45951;45.824;8.824;2024-02-26T07:25:31;3.90;;;2.50;;
60078;SDS011;45951;45.824;8.824;2024-02-26T07:27:11;2.88;;;1.98;;
60078;SDS011;45951;45.824;8.824;2024-02-26T07:28:51;3.60;;;2.27;;
60078;SDS011;45951;45.824;8.824;2024-02-26T07:30:32;2.42;;;1.67;;
60078;SDS011;45951;45.824;8.824;2024-02-26T07:32:12;2.27;;;1.90;;
60078;SDS011;45951;45.824;8.824;2024-02-26T07:33:52;3.10;;;2.30;;
60078;SDS011;45951;45.824;8.824;2024-02-26T07:35:32;3.38;;;2.20;;
60078;SDS011;45951;45.824;8.824;2024-02-26T07:37:13;2.55;;;1.90;;
60078;SDS011;45951;45.824;8.824;2024-02-26T07:38:53;2.47;;;1.90;;
60078;SDS011;45951;45.824;8.824;2024-02-26T07:40:34;2.63;;;1.67;;
60078;SDS011;45951;45.824;8.824;2024-02-26T07:42:14;3.40;;;2.20;;
60078;SDS011;45951;45.824;8.824;2024-02-26T07:43:54;3.53;;;1.73;;
60078;SDS011;45951;45.824;8.824;2024-02-26T07:45:34;3.07;;;1.97;;
60078;SDS011;45951;45.824;8.824;2024-02-26T07:47:16;3.03;;;1.80;;
60078;SDS011;45951;45.824;8.824;2024-02-26T07:48:56;3.78;;;2.20;;
60078;SDS011;45951;45.824;8.824;2024-02-26T07:50:36;2.47;;;1.77;;
60078;SDS011;45951;45.824;8.824;2024-02-26T07:52:17;3.15;;;2.10;;
60078;SDS011;45951;45.824;8.824;2024-02-26T07:53:57;3.40;;;2.00;;
60078;SDS011;45951;45.824;8.824;2024-02-26T07:55:37;4.23;;;2.03;;
60078;SDS011;45951;45.824;8.824;2024-02-26T07:57:17;1.92;;;1.63;;
60078;SDS011;45951;45.824;8.824;2024-02-26T07:58:57;2.42;;;1.83;;
60078;SDS011;45951;45.824;8.824;2024-02-26T08:00:38;3.60;;;2.00;;
60078;SDS011;45951;45.824;8.824;2024-02-26T08:02:18;3.37;;;1.90;;
60078;SDS011;45951;45.824;8.824;2024-02-26T08:03:58;3.93;;;2.17;;
60078;SDS011;45951;45.824;8.824;2024-02-26T08:05:38;2.63;;;1.90;;
60078;SDS011;45951;45.824;8.824;2024-02-26T08:07:20;2.90;;;1.90;;
60078;SDS011;45951;45.824;8.824;2024-02-26T08:09:01;3.38;;;2.40;;
60078;SDS011;45951;45.824;8.824;2024-02-26T08:10:41;2.95;;;1.98;;
60078;SDS011;45951;45.824;8.824;2024-02-26T08:12:21;4.15;;;2.42;;
60078;SDS011;45951;45.824;8.824;2024-02-26T08:14:01;2.53;;;2.10;;
60078;SDS011;45951;45.824;8.824;2024-02-26T08:15:42;3.20;;;1.92;;
60078;SDS011;45951;45.824;8.824;2024-02-26T08:17:22;2.90;;;2.03;;
60078;SDS011;45951;45.824;8.824;2024-02-26T08:19:02;2.93;;;1.90;;
60078;SDS011;45951;45.824;8.824;2024-02-26T08:20:42;3.27;;;1.93;;
60078;SDS011;45951;45.824;8.824;2024-02-26T08:22:23;3.33;;;2.17;;
60078;SDS011;45951;45.824;8.824;2024-02-26T08:24:03;3.00;;;2.20;;
60078;SDS011;45951;45.824;8.824;2024-02-26T08:25:43;3.25;;;2.17;;
60078;SDS011;45951;45.824;8.824;2024-02-26T08:27:23;3.63;;;2.35;;
60078;SDS011;45951;45.824;8.824;2024-02-26T08:29:04;4.33;;;2.27;;
60078;SDS011;45951;45.824;8.824;2024-02-26T08:30:44;3.92;;;2.30;;
60078;SDS011;45951;45.824;8.824;2024-02-26T08:32:24;4.03;;;2.30;;
60078;SDS011;45951;45.824;8.824;2024-02-26T08:34:04;3.28;;;2.20;;
60078;SDS011;45951;45.824;8.824;2024-02-26T08:35:45;4.13;;;2.40;;
60078;SDS011;45951;45.824;8.824;2024-02-26T08:37:25;4.23;;;2.30;;
60078;SDS011;45951;45.824;8.824;2024-02-26T08:39:05;3.72;;;2.38;;
60078;SDS011;45951;45.824;8.824;2024-02-26T08:40:45;3.37;;;2.33;;
60078;SDS011;45951;45.824;8.824;2024-02-26T08:42:26;2.75;;;2.05;;
60078;SDS011;45951;45.824;8.824;2024-02-26T08:44:06;3.20;;;2.27;;
60078;SDS011;45951;45.824;8.824;2024-02-26T08:45:46;4.60;;;2.55;;
60078;SDS011;45951;45.824;8.824;2024-02-26T08:47:26;3.15;;;2.40;;
60078;SDS011;45951;45.824;8.824;2024-02-26T08:49:06;4.00;;;1.92;;
60078;SDS011;45951;45.824;8.824;2024-02-26T08:50:47;5.00;;;2.40;;
60078;SDS011;45951;45.824;8.824;2024-02-26T08:52:27;2.88;;;1.92;;
60078;SDS011;45951;45.824;8.824;2024-02-26T08:54:07;3.77;;;2.37;;
60078;SDS011;45951;45.824;8.824;2024-02-26T08:55:47;4.20;;;2.40;;
60078;SDS011;45951;45.824;8.824;2024-02-26T08:57:27;2.83;;;1.77;;
60078;SDS011;45951;45.824;8.824;2024-02-26T08:59:08;2.63;;;1.85;;
60078;SDS011;45951;45.824;8.824;2024-02-26T09:00:48;2.60;;;2.03;;
60078;SDS011;45951;45.824;8.824;2024-02-26T09:02:30;2.83;;;1.90;;
60078;SDS011;45951;45.824;8.824;2024-02-26T09:04:10;2.60;;;1.73;;
60078;SDS011;45951;45.824;8.824;2024-02-26T09:05:50;2.40;;;1.90;;
60078;SDS011;45951;45.824;8.824;2024-02-26T09:07:31;2.75;;;1.73;;
60078;SDS011;45951;45.824;8.824;2024-02-26T09:09:11;2.60;;;1.75;;
60078;SDS011;45951;45.824;8.824;2024-02-26T09:10:51;3.70;;;2.00;;
60078;SDS011;45951;45.824;8.824;2024-02-26T09:12:31;3.87;;;2.23;;
60078;SDS011;45951;45.824;8.824;2024-02-26T09:14:12;3.05;;;1.90;;
60078;SDS011;45951;45.824;8.824;2024-02-26T09:15:52;2.97;;;2.00;;
60078;SDS011;45951;45.824;8.824;2024-02-26T09:17:32;3.20;;;1.93;;
60078;SDS011;45951;45.824;8.824;2024-02-26T09:19:12;3.20;;;2.08;;
60078;SDS011;45951;45.824;8.824;2024-02-26T09:20:53;2.30;;;1.80;;
60078;SDS011;45951;45.824;8.824;2024-02-26T09:22:33;2.60;;;1.70;;
60078;SDS011;45951;45.824;8.824;2024-02-26T09:24:14;2.92;;;2.00;;
60078;SDS011;45951;45.824;8.824;2024-02-26T09:25:55;4.33;;;2.00;;
60078;SDS011;45951;45.824;8.824;2024-02-26T09:27:35;2.80;;;2.10;;
60078;SDS011;45951;45.824;8.824;2024-02-26T09:29:15;3.22;;;2.17;;
60078;SDS011;45951;45.824;8.824;2024-02-26T09:30:55;3.10;;;2.00;;
60078;SDS011;45951;45.824;8.824;2024-02-26T09:32:35;3.87;;;2.00;;
60078;SDS011;45951;45.824;8.824;2024-02-26T09:34:16;3.30;;;2.00;;
60078;SDS011;45951;45.824;8.824;2024-02-26T09:35:56;5.60;;;2.20;;
60078;SDS011;45951;45.824;8.824;2024-02-26T09:37:36;2.90;;;1.80;;
60078;SDS011;45951;45.824;8.824;2024-02-26T09:39:16;2.90;;;1.88;;
60078;SDS011;45951;45.824;8.824;2024-02-26T09:41:01;2.63;;;1.77;;
60078;SDS011;45951;45.824;8.824;2024-02-26T09:42:43;1.83;;;1.58;;
60078;SDS011;45951;45.824;8.824;2024-02-26T09:44:23;2.20;;;1.52;;
60078;SDS011;45951;45.824;8.824;2024-02-26T09:46:04;2.28;;;1.52;;
60078;SDS011;45951;45.824;8.824;2024-02-26T09:47:45;1.88;;;1.40;;
60078;SDS011;45951;45.824;8.824;2024-02-26T09:49:27;2.47;;;1.77;;
60078;SDS011;45951;45.824;8.824;2024-02-26T09:51:07;2.55;;;1.50;;
60078;SDS011;45951;45.824;8.824;2024-02-26T09:52:50;4.32;;;2.20;;
60078;SDS011;45951;45.824;8.824;2024-02-26T09:54:31;2.78;;;1.52;;
60078;SDS011;45951;45.824;8.824;2024-02-26T09:56:12;2.45;;;1.63;;
60078;SDS011;45951;45.824;8.824;2024-02-26T09:57:55;3.03;;;1.60;;
60078;SDS011;45951;45.824;8.824;2024-02-26T09:59:39;1.50;;;1.40;;
60078;SDS011;45951;45.824;8.824;2024-02-26T10:01:20;1.92;;;1.35;;
60078;SDS011;45951;45.824;8.824;2024-02-26T10:03:03;1.88;;;1.58;;
60078;SDS011;45951;45.824;8.824;2024-02-26T10:04:44;2.17;;;1.55;;